sensor_id;sensor_type;location;lat;lon;timestamp;temperature;humidity
26186;DHT22;20067;48.764;9.176;2022-07-23T00:00:15;25.60;65.70
26186;DHT22;20067;48.764;9.176;2022-07-23T00:02:41;25.50;66.20
26186;DHT22;20067;48.764;9.176;2022-07-23T00:05:07;25.40;66.70
26186;DHT22;20067;48.764;9.176;2022-07-23T00:07:33;25.30;67.30
26186;DHT22;20067;48.764;9.176;2022-07-23T00:09:58;25.20;67.00
26186;DHT22;20067;48.764;9.176;2022-07-23T00:12:24;25.20;66.70
26186;DHT22;20067;48.764;9.176;2022-07-23T00:14:50;25.20;66.50
26186;DHT22;20067;48.764;9.176;2022-07-23T00:17:15;25.20;66.30
26186;DHT22;20067;48.764;9.176;2022-07-23T00:19:41;25.20;66.70
26186;DHT22;20067;48.764;9.176;2022-07-23T00:22:06;25.20;66.80
26186;DHT22;20067;48.764;9.176;2022-07-23T00:24:32;25.10;66.90
26186;DHT22;20067;48.764;9.176;2022-07-23T00:26:58;25.10;67.20
26186;DHT22;20067;48.764;9.176;2022-07-23T00:29:23;25.10;67.10
26186;DHT22;20067;48.764;9.176;2022-07-23T00:31:49;25.00;67.10
26186;DHT22;20067;48.764;9.176;2022-07-23T00:34:14;25.00;67.40
26186;DHT22;20067;48.764;9.176;2022-07-23T00:36:40;24.90;67.20
26186;DHT22;20067;48.764;9.176;2022-07-23T00:39:06;24.90;67.50
26186;DHT22;20067;48.764;9.176;2022-07-23T00:41:32;24.80;68.60
26186;DHT22;20067;48.764;9.176;2022-07-23T00:46:46;24.20;72.50
26186;DHT22;20067;48.764;9.176;2022-07-23T00:49:12;24.00;73.40
26186;DHT22;20067;48.764;9.176;2022-07-23T00:51:38;23.80;73.90
26186;DHT22;20067;48.764;9.176;2022-07-23T00:54:04;23.70;73.90
26186;DHT22;20067;48.764;9.176;2022-07-23T00:56:30;23.80;73.80
26186;DHT22;20067;48.764;9.176;2022-07-23T00:58:57;23.80;73.90
26186;DHT22;20067;48.764;9.176;2022-07-23T01:01:23;23.80;74.20
26186;DHT22;20067;48.764;9.176;2022-07-23T01:03:48;23.70;73.80
26186;DHT22;20067;48.764;9.176;2022-07-23T01:06:14;23.60;74.00
26186;DHT22;20067;48.764;9.176;2022-07-23T01:08:40;23.60;74.00
26186;DHT22;20067;48.764;9.176;2022-07-23T01:11:06;23.60;73.90
26186;DHT22;20067;48.764;9.176;2022-07-23T01:13:32;23.60;73.80
26186;DHT22;20067;48.764;9.176;2022-07-23T01:15:58;23.70;73.70
26186;DHT22;20067;48.764;9.176;2022-07-23T01:18:23;23.70;73.60
26186;DHT22;20067;48.764;9.176;2022-07-23T01:20:49;23.70;73.70
26186;DHT22;20067;48.764;9.176;2022-07-23T01:23:15;23.70;73.80
26186;DHT22;20067;48.764;9.176;2022-07-23T01:25:53;23.60;73.30
26186;DHT22;20067;48.764;9.176;2022-07-23T01:28:20;23.70;73.00
26186;DHT22;20067;48.764;9.176;2022-07-23T01:30:46;23.70;72.70
26186;DHT22;20067;48.764;9.176;2022-07-23T01:33:12;23.70;73.10
26186;DHT22;20067;48.764;9.176;2022-07-23T01:35:37;23.60;72.90
26186;DHT22;20067;48.764;9.176;2022-07-23T01:38:03;23.60;72.90
26186;DHT22;20067;48.764;9.176;2022-07-23T01:40:29;23.60;73.00
26186;DHT22;20067;48.764;9.176;2022-07-23T01:42:55;23.70;72.80
26186;DHT22;20067;48.764;9.176;2022-07-23T01:45:20;23.70;72.90
26186;DHT22;20067;48.764;9.176;2022-07-23T01:47:47;23.70;73.60
26186;DHT22;20067;48.764;9.176;2022-07-23T01:50:12;23.80;73.10
26186;DHT22;20067;48.764;9.176;2022-07-23T01:52:38;23.80;73.30
26186;DHT22;20067;48.764;9.176;2022-07-23T01:55:04;23.80;73.90
26186;DHT22;20067;48.764;9.176;2022-07-23T01:57:31;23.70;73.90
26186;DHT22;20067;48.764;9.176;2022-07-23T01:59:57;23.70;73.90
26186;DHT22;20067;48.764;9.176;2022-07-23T02:02:22;23.60;74.10
26186;DHT22;20067;48.764;9.176;2022-07-23T02:04:48;23.60;73.10
26186;DHT22;20067;48.764;9.176;2022-07-23T02:07:13;23.50;73.40
26186;DHT22;20067;48.764;9.176;2022-07-23T02:09:39;23.40;74.00
26186;DHT22;20067;48.764;9.176;2022-07-23T02:12:05;23.40;73.70
26186;DHT22;20067;48.764;9.176;2022-07-23T02:14:31;23.50;72.70
26186;DHT22;20067;48.764;9.176;2022-07-23T02:16:56;23.50;73.60
26186;DHT22;20067;48.764;9.176;2022-07-23T02:19:22;23.60;74.00
26186;DHT22;20067;48.764;9.176;2022-07-23T02:21:48;23.60;73.70
26186;DHT22;20067;48.764;9.176;2022-07-23T02:24:14;23.60;74.20
26186;DHT22;20067;48.764;9.176;2022-07-23T02:26:39;23.70;73.80
26186;DHT22;20067;48.764;9.176;2022-07-23T02:29:05;23.70;73.50
26186;DHT22;20067;48.764;9.176;2022-07-23T02:31:31;23.70;73.20
26186;DHT22;20067;48.764;9.176;2022-07-23T02:33:57;23.60;73.30
26186;DHT22;20067;48.764;9.176;2022-07-23T02:36:22;23.60;73.50
26186;DHT22;20067;48.764;9.176;2022-07-23T02:38:48;23.60;73.70
26186;DHT22;20067;48.764;9.176;2022-07-23T02:41:14;23.70;74.00
26186;DHT22;20067;48.764;9.176;2022-07-23T02:43:40;23.60;74.20
26186;DHT22;20067;48.764;9.176;2022-07-23T02:46:05;23.60;74.00
26186;DHT22;20067;48.764;9.176;2022-07-23T02:48:31;23.60;74.30
26186;DHT22;20067;48.764;9.176;2022-07-23T02:50:57;23.50;74.00
26186;DHT22;20067;48.764;9.176;2022-07-23T02:53:23;23.50;74.70
26186;DHT22;20067;48.764;9.176;2022-07-23T02:55:49;23.30;75.20
26186;DHT22;20067;48.764;9.176;2022-07-23T02:58:14;23.10;75.90
26186;DHT22;20067;48.764;9.176;2022-07-23T03:00:41;23.00;76.30
26186;DHT22;20067;48.764;9.176;2022-07-23T03:03:07;23.00;76.40
26186;DHT22;20067;48.764;9.176;2022-07-23T03:05:33;23.00;76.60
26186;DHT22;20067;48.764;9.176;2022-07-23T03:07:59;23.00;76.30
26186;DHT22;20067;48.764;9.176;2022-07-23T03:10:24;23.00;76.40
26186;DHT22;20067;48.764;9.176;2022-07-23T03:12:50;23.00;76.20
26186;DHT22;20067;48.764;9.176;2022-07-23T03:15:16;23.10;76.20
26186;DHT22;20067;48.764;9.176;2022-07-23T03:17:41;23.10;76.60
26186;DHT22;20067;48.764;9.176;2022-07-23T03:20:07;23.20;76.90
26186;DHT22;20067;48.764;9.176;2022-07-23T03:22:33;23.30;76.60
26186;DHT22;20067;48.764;9.176;2022-07-23T03:24:59;23.40;75.70
26186;DHT22;20067;48.764;9.176;2022-07-23T03:27:26;23.40;75.30
26186;DHT22;20067;48.764;9.176;2022-07-23T03:29:54;23.40;75.10
26186;DHT22;20067;48.764;9.176;2022-07-23T03:32:20;23.40;75.00
26186;DHT22;20067;48.764;9.176;2022-07-23T03:34:46;23.40;75.20
26186;DHT22;20067;48.764;9.176;2022-07-23T03:37:12;23.50;75.30
26186;DHT22;20067;48.764;9.176;2022-07-23T03:39:38;23.60;75.30
26186;DHT22;20067;48.764;9.176;2022-07-23T03:42:04;23.60;75.10
26186;DHT22;20067;48.764;9.176;2022-07-23T03:44:29;23.70;75.10
26186;DHT22;20067;48.764;9.176;2022-07-23T03:46:55;23.70;75.10
26186;DHT22;20067;48.764;9.176;2022-07-23T03:49:21;23.70;75.40
26186;DHT22;20067;48.764;9.176;2022-07-23T03:51:46;23.70;75.50
26186;DHT22;20067;48.764;9.176;2022-07-23T03:54:12;23.60;75.20
26186;DHT22;20067;48.764;9.176;2022-07-23T03:56:38;23.50;76.00
26186;DHT22;20067;48.764;9.176;2022-07-23T03:59:04;23.60;76.20
26186;DHT22;20067;48.764;9.176;2022-07-23T04:01:29;23.50;75.40
26186;DHT22;20067;48.764;9.176;2022-07-23T04:03:55;23.40;75.80
26186;DHT22;20067;48.764;9.176;2022-07-23T04:06:21;23.40;75.60
26186;DHT22;20067;48.764;9.176;2022-07-23T04:08:47;23.20;75.80
26186;DHT22;20067;48.764;9.176;2022-07-23T04:11:12;23.10;76.30
26186;DHT22;20067;48.764;9.176;2022-07-23T04:13:38;23.10;76.70
26186;DHT22;20067;48.764;9.176;2022-07-23T04:16:04;23.20;77.20
26186;DHT22;20067;48.764;9.176;2022-07-23T04:18:30;23.20;77.10
26186;DHT22;20067;48.764;9.176;2022-07-23T04:20:55;23.30;77.30
26186;DHT22;20067;48.764;9.176;2022-07-23T04:23:21;23.30;76.70
26186;DHT22;20067;48.764;9.176;2022-07-23T04:25:46;23.40;76.60
26186;DHT22;20067;48.764;9.176;2022-07-23T04:28:12;23.40;76.20
26186;DHT22;20067;48.764;9.176;2022-07-23T04:30:38;23.50;75.90
26186;DHT22;20067;48.764;9.176;2022-07-23T04:33:04;23.50;75.60
26186;DHT22;20067;48.764;9.176;2022-07-23T04:35:33;23.50;74.80
26186;DHT22;20067;48.764;9.176;2022-07-23T04:37:59;23.50;75.80
26186;DHT22;20067;48.764;9.176;2022-07-23T04:40:26;23.60;75.90
26186;DHT22;20067;48.764;9.176;2022-07-23T04:42:52;23.60;75.50
26186;DHT22;20067;48.764;9.176;2022-07-23T04:45:17;23.70;75.90
26186;DHT22;20067;48.764;9.176;2022-07-23T04:47:43;23.70;75.80
26186;DHT22;20067;48.764;9.176;2022-07-23T04:50:09;23.70;75.80
26186;DHT22;20067;48.764;9.176;2022-07-23T04:52:34;23.70;75.30
26186;DHT22;20067;48.764;9.176;2022-07-23T04:55:00;23.60;75.40
26186;DHT22;20067;48.764;9.176;2022-07-23T04:57:26;23.60;75.40
26186;DHT22;20067;48.764;9.176;2022-07-23T04:59:51;23.60;75.60
26186;DHT22;20067;48.764;9.176;2022-07-23T05:02:17;23.60;75.40
26186;DHT22;20067;48.764;9.176;2022-07-23T05:04:42;23.60;75.60
26186;DHT22;20067;48.764;9.176;2022-07-23T05:07:08;23.70;75.20
26186;DHT22;20067;48.764;9.176;2022-07-23T05:09:34;23.70;75.30
26186;DHT22;20067;48.764;9.176;2022-07-23T05:11:59;23.60;76.10
26186;DHT22;20067;48.764;9.176;2022-07-23T05:14:25;23.70;75.30
26186;DHT22;20067;48.764;9.176;2022-07-23T05:16:51;23.60;75.50
26186;DHT22;20067;48.764;9.176;2022-07-23T05:19:16;23.70;74.70
26186;DHT22;20067;48.764;9.176;2022-07-23T05:21:42;23.70;74.50
26186;DHT22;20067;48.764;9.176;2022-07-23T05:24:07;23.80;75.30
26186;DHT22;20067;48.764;9.176;2022-07-23T05:26:33;23.80;75.00
26186;DHT22;20067;48.764;9.176;2022-07-23T05:28:59;23.70;74.70
26186;DHT22;20067;48.764;9.176;2022-07-23T05:31:24;23.70;75.20
26186;DHT22;20067;48.764;9.176;2022-07-23T05:33:50;23.80;74.80
26186;DHT22;20067;48.764;9.176;2022-07-23T05:36:15;23.90;74.50
26186;DHT22;20067;48.764;9.176;2022-07-23T05:38:41;23.90;75.10
26186;DHT22;20067;48.764;9.176;2022-07-23T05:41:07;24.10;73.70
26186;DHT22;20067;48.764;9.176;2022-07-23T05:43:32;24.20;74.10
26186;DHT22;20067;48.764;9.176;2022-07-23T05:45:58;24.10;73.50
26186;DHT22;20067;48.764;9.176;2022-07-23T05:48:24;24.10;73.90
26186;DHT22;20067;48.764;9.176;2022-07-23T05:50:49;24.00;73.80
26186;DHT22;20067;48.764;9.176;2022-07-23T05:53:15;24.00;74.30
26186;DHT22;20067;48.764;9.176;2022-07-23T05:55:41;24.00;74.10
26186;DHT22;20067;48.764;9.176;2022-07-23T05:58:06;24.10;74.30
26186;DHT22;20067;48.764;9.176;2022-07-23T06:00:32;24.20;74.60
26186;DHT22;20067;48.764;9.176;2022-07-23T06:02:58;24.30;74.50
26186;DHT22;20067;48.764;9.176;2022-07-23T06:05:23;24.30;73.40
26186;DHT22;20067;48.764;9.176;2022-07-23T06:07:49;24.30;73.70
26186;DHT22;20067;48.764;9.176;2022-07-23T06:10:16;24.30;73.60
26186;DHT22;20067;48.764;9.176;2022-07-23T06:12:41;24.40;74.10
26186;DHT22;20067;48.764;9.176;2022-07-23T06:15:08;24.50;73.10
26186;DHT22;20067;48.764;9.176;2022-07-23T06:17:34;24.50;73.60
26186;DHT22;20067;48.764;9.176;2022-07-23T06:19:59;24.50;73.30
26186;DHT22;20067;48.764;9.176;2022-07-23T06:22:25;24.60;72.90
26186;DHT22;20067;48.764;9.176;2022-07-23T06:24:51;24.60;71.40
26186;DHT22;20067;48.764;9.176;2022-07-23T06:27:17;24.70;72.50
26186;DHT22;20067;48.764;9.176;2022-07-23T06:29:43;24.70;71.70
26186;DHT22;20067;48.764;9.176;2022-07-23T06:32:09;24.80;70.90
26186;DHT22;20067;48.764;9.176;2022-07-23T06:34:34;24.70;72.20
26186;DHT22;20067;48.764;9.176;2022-07-23T06:37:00;24.80;70.90
26186;DHT22;20067;48.764;9.176;2022-07-23T06:39:26;24.70;70.90
26186;DHT22;20067;48.764;9.176;2022-07-23T06:41:52;24.80;71.20
26186;DHT22;20067;48.764;9.176;2022-07-23T06:44:18;24.60;70.80
26186;DHT22;20067;48.764;9.176;2022-07-23T06:46:44;24.70;71.10
26186;DHT22;20067;48.764;9.176;2022-07-23T06:49:09;24.80;70.00
26186;DHT22;20067;48.764;9.176;2022-07-23T06:51:35;24.90;71.00
26186;DHT22;20067;48.764;9.176;2022-07-23T06:54:02;24.70;70.60
26186;DHT22;20067;48.764;9.176;2022-07-23T06:56:27;24.60;71.20
26186;DHT22;20067;48.764;9.176;2022-07-23T06:58:53;24.50;71.40
26186;DHT22;20067;48.764;9.176;2022-07-23T07:01:19;24.50;71.90
26186;DHT22;20067;48.764;9.176;2022-07-23T07:03:45;24.40;70.80
26186;DHT22;20067;48.764;9.176;2022-07-23T07:06:10;24.50;71.80
26186;DHT22;20067;48.764;9.176;2022-07-23T07:08:36;24.60;72.20
26186;DHT22;20067;48.764;9.176;2022-07-23T07:11:02;24.70;70.30
26186;DHT22;20067;48.764;9.176;2022-07-23T07:13:28;24.70;70.20
26186;DHT22;20067;48.764;9.176;2022-07-23T07:15:54;24.40;71.00
26186;DHT22;20067;48.764;9.176;2022-07-23T07:18:19;24.40;70.80
26186;DHT22;20067;48.764;9.176;2022-07-23T07:20:45;24.50;71.80
26186;DHT22;20067;48.764;9.176;2022-07-23T07:23:12;24.40;70.60
26186;DHT22;20067;48.764;9.176;2022-07-23T07:25:38;24.20;71.20
26186;DHT22;20067;48.764;9.176;2022-07-23T07:28:04;24.10;71.40
26186;DHT22;20067;48.764;9.176;2022-07-23T07:30:30;24.10;72.90
26186;DHT22;20067;48.764;9.176;2022-07-23T07:32:55;24.20;72.40
26186;DHT22;20067;48.764;9.176;2022-07-23T07:35:21;24.20;73.10
26186;DHT22;20067;48.764;9.176;2022-07-23T07:37:47;24.30;73.10
26186;DHT22;20067;48.764;9.176;2022-07-23T07:40:12;24.30;73.00
26186;DHT22;20067;48.764;9.176;2022-07-23T07:42:49;24.10;73.50
26186;DHT22;20067;48.764;9.176;2022-07-23T07:45:16;24.10;74.10
26186;DHT22;20067;48.764;9.176;2022-07-23T07:47:42;24.20;74.70
26186;DHT22;20067;48.764;9.176;2022-07-23T07:50:08;24.20;75.50
26186;DHT22;20067;48.764;9.176;2022-07-23T07:52:35;24.20;78.00
26186;DHT22;20067;48.764;9.176;2022-07-23T07:55:06;24.50;75.60
26186;DHT22;20067;48.764;9.176;2022-07-23T07:57:32;24.90;75.80
26186;DHT22;20067;48.764;9.176;2022-07-23T07:59:58;25.10;73.40
26186;DHT22;20067;48.764;9.176;2022-07-23T08:02:24;24.50;73.50
26186;DHT22;20067;48.764;9.176;2022-07-23T08:04:50;24.30;73.80
26186;DHT22;20067;48.764;9.176;2022-07-23T08:07:16;24.70;74.00
26186;DHT22;20067;48.764;9.176;2022-07-23T08:09:42;25.00;72.30
26186;DHT22;20067;48.764;9.176;2022-07-23T08:12:08;25.00;72.10
26186;DHT22;20067;48.764;9.176;2022-07-23T08:14:33;25.10;74.00
26186;DHT22;20067;48.764;9.176;2022-07-23T08:16:59;25.20;70.60
26186;DHT22;20067;48.764;9.176;2022-07-23T08:19:25;25.60;74.20
26186;DHT22;20067;48.764;9.176;2022-07-23T08:21:51;25.60;70.00
26186;DHT22;20067;48.764;9.176;2022-07-23T08:24:17;25.60;70.60
26186;DHT22;20067;48.764;9.176;2022-07-23T08:26:42;25.40;71.10
26186;DHT22;20067;48.764;9.176;2022-07-23T08:29:08;25.10;70.20
26186;DHT22;20067;48.764;9.176;2022-07-23T08:31:34;24.90;71.30
26186;DHT22;20067;48.764;9.176;2022-07-23T08:34:00;24.90;71.50
26186;DHT22;20067;48.764;9.176;2022-07-23T08:36:25;24.90;71.50
26186;DHT22;20067;48.764;9.176;2022-07-23T08:38:54;24.90;71.50
26186;DHT22;20067;48.764;9.176;2022-07-23T08:41:20;25.10;72.60
26186;DHT22;20067;48.764;9.176;2022-07-23T08:43:46;25.20;70.90
26186;DHT22;20067;48.764;9.176;2022-07-23T08:46:13;25.30;70.50
26186;DHT22;20067;48.764;9.176;2022-07-23T08:48:39;25.40;70.00
26186;DHT22;20067;48.764;9.176;2022-07-23T08:51:06;25.80;72.10
26186;DHT22;20067;48.764;9.176;2022-07-23T08:53:33;26.20;68.90
26186;DHT22;20067;48.764;9.176;2022-07-23T08:56:02;26.60;74.90
26186;DHT22;20067;48.764;9.176;2022-07-23T08:58:29;26.80;66.20
26186;DHT22;20067;48.764;9.176;2022-07-23T09:00:56;27.00;65.70
26186;DHT22;20067;48.764;9.176;2022-07-23T09:03:31;26.90;66.30
26186;DHT22;20067;48.764;9.176;2022-07-23T09:05:58;27.60;67.30
26186;DHT22;20067;48.764;9.176;2022-07-23T09:08:26;27.80;64.90
26186;DHT22;20067;48.764;9.176;2022-07-23T09:11:01;27.70;63.70
26186;DHT22;20067;48.764;9.176;2022-07-23T09:13:34;27.80;62.70
26186;DHT22;20067;48.764;9.176;2022-07-23T09:16:11;28.00;61.50
26186;DHT22;20067;48.764;9.176;2022-07-23T09:18:45;28.20;60.60
26186;DHT22;20067;48.764;9.176;2022-07-23T09:21:12;28.30;64.10
26186;DHT22;20067;48.764;9.176;2022-07-23T09:31:42;28.60;59.70
26186;DHT22;20067;48.764;9.176;2022-07-23T09:34:14;28.90;61.70
26186;DHT22;20067;48.764;9.176;2022-07-23T09:36:40;29.40;58.00
26186;DHT22;20067;48.764;9.176;2022-07-23T09:39:07;30.20;59.00
26186;DHT22;20067;48.764;9.176;2022-07-23T09:41:41;30.70;57.60
26186;DHT22;20067;48.764;9.176;2022-07-23T09:44:16;31.00;54.00
26186;DHT22;20067;48.764;9.176;2022-07-23T09:46:44;31.20;54.90
26186;DHT22;20067;48.764;9.176;2022-07-23T09:49:13;31.40;53.80
26186;DHT22;20067;48.764;9.176;2022-07-23T09:52:00;31.10;54.40
26186;DHT22;20067;48.764;9.176;2022-07-23T09:54:39;30.20;54.70
26186;DHT22;20067;48.764;9.176;2022-07-23T09:57:11;29.50;56.50
26186;DHT22;20067;48.764;9.176;2022-07-23T09:59:43;29.50;57.20
26186;DHT22;20067;48.764;9.176;2022-07-23T10:02:11;29.90;58.40
26186;DHT22;20067;48.764;9.176;2022-07-23T10:04:40;30.40;55.30
26186;DHT22;20067;48.764;9.176;2022-07-23T10:07:08;30.40;56.10
26186;DHT22;20067;48.764;9.176;2022-07-23T10:09:39;29.90;55.70
26186;DHT22;20067;48.764;9.176;2022-07-23T10:12:14;29.90;56.70
26186;DHT22;20067;48.764;9.176;2022-07-23T10:14:40;29.90;58.80
26186;DHT22;20067;48.764;9.176;2022-07-23T10:17:07;29.40;57.30
26186;DHT22;20067;48.764;9.176;2022-07-23T10:19:33;29.70;56.50
26186;DHT22;20067;48.764;9.176;2022-07-23T10:22:04;29.50;59.50
26186;DHT22;20067;48.764;9.176;2022-07-23T10:24:53;30.00;63.50
26186;DHT22;20067;48.764;9.176;2022-07-23T10:30:15;30.00;55.70
26186;DHT22;20067;48.764;9.176;2022-07-23T10:38:21;30.00;57.30
26186;DHT22;20067;48.764;9.176;2022-07-23T10:41:00;30.00;58.40
26186;DHT22;20067;48.764;9.176;2022-07-23T10:43:27;30.20;55.20
26186;DHT22;20067;48.764;9.176;2022-07-23T10:45:53;30.10;55.10
26186;DHT22;20067;48.764;9.176;2022-07-23T10:48:23;30.30;56.70
26186;DHT22;20067;48.764;9.176;2022-07-23T10:51:16;30.80;57.50
26186;DHT22;20067;48.764;9.176;2022-07-23T10:54:20;31.40;54.70
26186;DHT22;20067;48.764;9.176;2022-07-23T10:59:20;31.20;51.90
26186;DHT22;20067;48.764;9.176;2022-07-23T11:01:46;31.40;53.70
26186;DHT22;20067;48.764;9.176;2022-07-23T11:04:12;31.60;51.50
26186;DHT22;20067;48.764;9.176;2022-07-23T11:09:42;31.10;54.90
26186;DHT22;20067;48.764;9.176;2022-07-23T11:17:24;32.00;53.30
26186;DHT22;20067;48.764;9.176;2022-07-23T11:25:11;33.60;49.70
26186;DHT22;20067;48.764;9.176;2022-07-23T11:27:38;33.90;52.10
26186;DHT22;20067;48.764;9.176;2022-07-23T11:30:05;33.90;49.10
26186;DHT22;20067;48.764;9.176;2022-07-23T11:32:34;33.60;50.70
26186;DHT22;20067;48.764;9.176;2022-07-23T11:35:05;33.60;51.60
26186;DHT22;20067;48.764;9.176;2022-07-23T11:37:44;33.00;50.70
26186;DHT22;20067;48.764;9.176;2022-07-23T11:40:12;32.60;52.10
26186;DHT22;20067;48.764;9.176;2022-07-23T11:42:39;32.10;52.70
26186;DHT22;20067;48.764;9.176;2022-07-23T11:45:07;31.40;56.10
26186;DHT22;20067;48.764;9.176;2022-07-23T11:47:33;31.50;53.40
26186;DHT22;20067;48.764;9.176;2022-07-23T11:50:02;31.30;54.60
26186;DHT22;20067;48.764;9.176;2022-07-23T11:52:28;31.30;56.70
26186;DHT22;20067;48.764;9.176;2022-07-23T11:55:01;31.00;54.80
26186;DHT22;20067;48.764;9.176;2022-07-23T11:57:29;31.20;54.70
26186;DHT22;20067;48.764;9.176;2022-07-23T11:59:58;30.90;54.20
26186;DHT22;20067;48.764;9.176;2022-07-23T12:02:26;31.00;56.50
26186;DHT22;20067;48.764;9.176;2022-07-23T12:04:52;31.40;54.20
26186;DHT22;20067;48.764;9.176;2022-07-23T12:07:25;31.90;55.30
26186;DHT22;20067;48.764;9.176;2022-07-23T12:09:51;32.00;52.80
26186;DHT22;20067;48.764;9.176;2022-07-23T12:12:16;32.40;54.90
26186;DHT22;20067;48.764;9.176;2022-07-23T12:14:52;32.20;52.70
26186;DHT22;20067;48.764;9.176;2022-07-23T12:17:18;33.00;49.90
26186;DHT22;20067;48.764;9.176;2022-07-23T12:19:44;33.60;49.60
26186;DHT22;20067;48.764;9.176;2022-07-23T12:22:11;33.60;52.50
26186;DHT22;20067;48.764;9.176;2022-07-23T12:24:59;34.10;49.90
26186;DHT22;20067;48.764;9.176;2022-07-23T12:27:26;34.00;50.20
26186;DHT22;20067;48.764;9.176;2022-07-23T12:29:52;34.10;49.30
26186;DHT22;20067;48.764;9.176;2022-07-23T12:32:22;33.20;49.50
26186;DHT22;20067;48.764;9.176;2022-07-23T12:34:50;32.10;55.30
26186;DHT22;20067;48.764;9.176;2022-07-23T12:37:45;32.40;54.30
26186;DHT22;20067;48.764;9.176;2022-07-23T12:40:37;32.50;53.40
26186;DHT22;20067;48.764;9.176;2022-07-23T12:43:18;32.70;53.30
26186;DHT22;20067;48.764;9.176;2022-07-23T12:45:50;32.60;51.70
26186;DHT22;20067;48.764;9.176;2022-07-23T12:48:49;32.60;51.00
26186;DHT22;20067;48.764;9.176;2022-07-23T12:51:29;32.70;51.20
26186;DHT22;20067;48.764;9.176;2022-07-23T12:54:13;33.30;51.30
26186;DHT22;20067;48.764;9.176;2022-07-23T12:56:44;34.00;51.70
26186;DHT22;20067;48.764;9.176;2022-07-23T12:59:35;33.90;49.80
26186;DHT22;20067;48.764;9.176;2022-07-23T13:02:00;33.50;50.40
26186;DHT22;20067;48.764;9.176;2022-07-23T13:04:26;33.30;51.70
26186;DHT22;20067;48.764;9.176;2022-07-23T13:06:54;33.30;52.00
26186;DHT22;20067;48.764;9.176;2022-07-23T13:09:23;33.80;52.80
26186;DHT22;20067;48.764;9.176;2022-07-23T13:11:50;33.50;50.90
26186;DHT22;20067;48.764;9.176;2022-07-23T13:14:17;32.90;51.30
26186;DHT22;20067;48.764;9.176;2022-07-23T13:16:43;32.70;51.10
26186;DHT22;20067;48.764;9.176;2022-07-23T13:19:09;32.20;52.50
26186;DHT22;20067;48.764;9.176;2022-07-23T13:21:35;32.50;51.00
26186;DHT22;20067;48.764;9.176;2022-07-23T13:24:01;33.00;51.80
26186;DHT22;20067;48.764;9.176;2022-07-23T13:26:27;33.40;50.70
26186;DHT22;20067;48.764;9.176;2022-07-23T13:28:53;33.30;49.10
26186;DHT22;20067;48.764;9.176;2022-07-23T13:31:19;33.70;49.70
26186;DHT22;20067;48.764;9.176;2022-07-23T13:33:46;34.40;47.10
26186;DHT22;20067;48.764;9.176;2022-07-23T13:36:11;34.50;46.90
26186;DHT22;20067;48.764;9.176;2022-07-23T13:38:37;34.00;47.80
26186;DHT22;20067;48.764;9.176;2022-07-23T13:41:04;34.00;47.20
26186;DHT22;20067;48.764;9.176;2022-07-23T13:43:30;34.10;47.30
26186;DHT22;20067;48.764;9.176;2022-07-23T13:45:56;34.30;47.80
26186;DHT22;20067;48.764;9.176;2022-07-23T13:48:22;34.10;49.00
26186;DHT22;20067;48.764;9.176;2022-07-23T13:50:49;34.80;48.20
26186;DHT22;20067;48.764;9.176;2022-07-23T13:53:20;35.00;46.60
26186;DHT22;20067;48.764;9.176;2022-07-23T13:55:47;35.40;45.80
26186;DHT22;20067;48.764;9.176;2022-07-23T13:58:13;36.00;46.00
26186;DHT22;20067;48.764;9.176;2022-07-23T14:00:43;36.00;45.30
26186;DHT22;20067;48.764;9.176;2022-07-23T14:03:09;35.20;47.30
26186;DHT22;20067;48.764;9.176;2022-07-23T14:05:34;34.50;48.10
26186;DHT22;20067;48.764;9.176;2022-07-23T14:08:01;34.00;47.30
26186;DHT22;20067;48.764;9.176;2022-07-23T14:10:27;33.10;50.50
26186;DHT22;20067;48.764;9.176;2022-07-23T14:12:53;33.30;50.90
26186;DHT22;20067;48.764;9.176;2022-07-23T14:15:22;33.60;50.60
26186;DHT22;20067;48.764;9.176;2022-07-23T14:17:48;34.10;47.40
26186;DHT22;20067;48.764;9.176;2022-07-23T14:20:14;34.40;47.60
26186;DHT22;20067;48.764;9.176;2022-07-23T14:22:40;34.50;46.30
26186;DHT22;20067;48.764;9.176;2022-07-23T14:25:08;35.10;46.50
26186;DHT22;20067;48.764;9.176;2022-07-23T14:27:34;36.00;44.90
26186;DHT22;20067;48.764;9.176;2022-07-23T14:30:00;36.60;46.50
26186;DHT22;20067;48.764;9.176;2022-07-23T14:32:26;36.80;43.20
26186;DHT22;20067;48.764;9.176;2022-07-23T14:34:51;36.30;42.70
26186;DHT22;20067;48.764;9.176;2022-07-23T14:37:17;35.60;43.50
26186;DHT22;20067;48.764;9.176;2022-07-23T14:39:44;35.00;44.30
26186;DHT22;20067;48.764;9.176;2022-07-23T14:42:10;34.70;45.20
26186;DHT22;20067;48.764;9.176;2022-07-23T14:44:37;34.50;46.40
26186;DHT22;20067;48.764;9.176;2022-07-23T14:47:03;34.50;45.60
26186;DHT22;20067;48.764;9.176;2022-07-23T14:49:32;34.40;48.60
26186;DHT22;20067;48.764;9.176;2022-07-23T14:51:59;35.20;45.90
26186;DHT22;20067;48.764;9.176;2022-07-23T14:54:25;35.60;45.20
26186;DHT22;20067;48.764;9.176;2022-07-23T14:56:55;35.80;43.50
26186;DHT22;20067;48.764;9.176;2022-07-23T14:59:21;35.30;45.00
26186;DHT22;20067;48.764;9.176;2022-07-23T15:01:47;35.60;44.40
26186;DHT22;20067;48.764;9.176;2022-07-23T15:04:12;36.00;43.60
26186;DHT22;20067;48.764;9.176;2022-07-23T15:06:38;35.60;42.80
26186;DHT22;20067;48.764;9.176;2022-07-23T15:09:04;35.40;44.30
26186;DHT22;20067;48.764;9.176;2022-07-23T15:11:30;34.80;45.70
26186;DHT22;20067;48.764;9.176;2022-07-23T15:14:05;33.60;46.90
26186;DHT22;20067;48.764;9.176;2022-07-23T15:16:32;33.00;47.00
26186;DHT22;20067;48.764;9.176;2022-07-23T15:18:58;32.90;48.30
26186;DHT22;20067;48.764;9.176;2022-07-23T15:21:24;32.90;46.90
26186;DHT22;20067;48.764;9.176;2022-07-23T15:23:50;33.00;47.70
26186;DHT22;20067;48.764;9.176;2022-07-23T15:26:16;32.70;49.30
26186;DHT22;20067;48.764;9.176;2022-07-23T15:28:43;32.40;49.80
26186;DHT22;20067;48.764;9.176;2022-07-23T15:31:09;32.20;48.60
26186;DHT22;20067;48.764;9.176;2022-07-23T15:33:35;31.90;49.20
26186;DHT22;20067;48.764;9.176;2022-07-23T15:36:01;31.90;49.80
26186;DHT22;20067;48.764;9.176;2022-07-23T15:38:27;32.20;51.30
26186;DHT22;20067;48.764;9.176;2022-07-23T15:40:54;32.10;51.80
26186;DHT22;20067;48.764;9.176;2022-07-23T15:43:25;31.90;50.20
26186;DHT22;20067;48.764;9.176;2022-07-23T15:45:51;32.00;50.50
26186;DHT22;20067;48.764;9.176;2022-07-23T15:48:20;32.00;51.60
26186;DHT22;20067;48.764;9.176;2022-07-23T15:50:48;31.90;52.40
26186;DHT22;20067;48.764;9.176;2022-07-23T15:53:14;31.80;49.90
26186;DHT22;20067;48.764;9.176;2022-07-23T15:55:40;31.60;50.90
26186;DHT22;20067;48.764;9.176;2022-07-23T15:58:06;31.80;51.10
26186;DHT22;20067;48.764;9.176;2022-07-23T16:00:33;32.00;49.80
26186;DHT22;20067;48.764;9.176;2022-07-23T16:02:58;32.20;51.20
26186;DHT22;20067;48.764;9.176;2022-07-23T16:05:24;32.10;49.70